Wylie, TX

6:27 PM CDT on April 19, 2015 (GMT -0500)
Lavon Yacht Club | | Change Station
CLOSE
Current Station
Personal Weather Station
Location: Wylie, TX
Elevation: 495 ft
Nearby Weather Stations

Elev 495 ft 33.04 °N, 96.53 °W | Updated 51 days ago

Clear
Clear
74 °F
Feels Like 74 °F
N
13
Wind Variable Wind from WNW
Gusts 23 mph

Today
High -- | Low -- °F
--% Chance of Precip.
Yesterday
High -- | Low -- °F
Precip. -- in
6:51 AM 7:59 PM
New Moon, 2% visible
Pressure 29.72 in
Visibility 10.0 miles
Clouds Scattered Clouds 5500 ft
Scattered Clouds 7000 ft
Dew Point 53 °F
Humidity 48%
Rainfall in
Snow Depth Not available.
UV 1 out of 12
Pollen 9.80 out of 12
Air Quality Not available.
Flu Activity Local Activity
METAR KF46 192315Z AUTO 32012G21KT 10SM SCT055 SCT070 24/12 A2972 RMK AO2 T02350116

More Conditions Fewer Conditions

Pressure 29.72 in
Visibility 10.0 miles
Clouds Scattered Clouds 5500 ft
Scattered Clouds 7000 ft
Dew Point 53 °F
Humidity 48%
Rainfall in
Snow Depth Not available.
UV 1 out of 12
Pollen 9.80 out of 12
Air Quality Not available.
Flu Activity Local Activity
METAR KF46 192315Z AUTO 32012G21KT 10SM SCT055 SCT070 24/12 A2972 RMK AO2 T02350116

More Conditions Fewer Conditions

10-Day Weather Forecast

Almanac

Astronomy

Apr. 19, 2015 Rise Set
Actual Time
Civil Twilight
Nautical Twilight
Astronomical Twilight
Moon
Length of Visible Light
Length of Day
Tomorrow will be .
, % of the Moon is Illuminated

Today's Extremes

State Highs State Lows

Community

WunderPhotos

Upload Photos

1,815,030 photos uploaded!

WunderBlogs® & News

Nearby

Air Quality

  Air Quality AQ Index Pollutant
Not available.

Snow Depth

Station Depth Elevation

Earthquake Activity

City Distance Mag. Time & Date
Minimum magnitude displayed is 2.5.

Coastal Water Temperatures

Place Temperature

Stations

Nearby Weather Stations

Station Location Temp. Windchill Dew Point Humidity Wind Precip. Elev Updated Type